createdAt,value
2017-11-16T00:14:52.384Z,95558.91
2017-11-16T00:17:19.678Z,95553.05
2017-11-16T00:19:46.912Z,95555.50
2017-11-16T00:22:14.149Z,95553.99
2017-11-16T00:24:41.341Z,95552.64
2017-11-16T00:27:08.515Z,95553.78
2017-11-16T00:29:35.708Z,95557.95
2017-11-16T00:34:40.809Z,95551.88
2017-11-16T00:37:08.053Z,95555.85
2017-11-16T00:39:35.241Z,95553.58
2017-11-16T00:42:02.512Z,95547.72
2017-11-16T00:44:29.746Z,95543.74
2017-11-16T00:46:56.976Z,95542.23
2017-11-16T00:49:24.220Z,95549.80
2017-11-16T00:51:51.413Z,95547.73
2017-11-16T00:54:18.632Z,95542.44
2017-11-16T00:56:45.813Z,95544.89
2017-11-16T00:59:13.052Z,95546.03
2017-11-16T01:01:40.250Z,95544.88
2017-11-16T01:04:07.456Z,95548.46
2017-11-16T01:35:05.005Z,95513.66
2017-11-16T01:37:32.191Z,95510.83
2017-11-16T02:10:55.335Z,95508.58
2017-11-16T02:23:41.200Z,95516.98
2017-11-16T02:26:08.431Z,95512.07
2017-11-16T02:28:35.640Z,95509.22
2017-11-16T02:31:02.800Z,95509.96
2017-11-16T02:33:30.038Z,95509.78
2017-11-16T02:35:57.194Z,95509.39
2017-11-16T02:38:24.376Z,95512.58
2017-11-16T02:40:51.645Z,95515.59
2017-11-16T02:43:18.906Z,95510.32
2017-11-16T02:45:46.111Z,95506.36
2017-11-16T03:14:12.883Z,95512.16
2017-11-16T03:16:40.113Z,95512.92
2017-11-16T03:19:07.289Z,95515.56
2017-11-16T03:21:34.501Z,95510.27
2017-11-16T04:19:13.178Z,95486.38
2017-11-16T04:21:43.123Z,95494.91
2017-11-16T04:47:09.625Z,95505.77
2017-11-16T04:49:36.887Z,95503.11
2017-11-16T04:52:04.136Z,95500.67
2017-11-16T05:17:33.899Z,95502.38
2017-11-16T05:20:02.847Z,95507.28
2017-11-16T05:22:30.290Z,95505.96
2017-11-16T05:24:58.690Z,95505.96
2017-11-16T05:27:26.156Z,95506.55
2017-11-16T05:29:53.592Z,95503.91
2017-11-16T05:32:21.053Z,95497.48
2017-11-16T05:34:51.918Z,95503.34
2017-11-16T05:37:19.474Z,95509.41
2017-11-16T05:39:47.137Z,95503.91
2017-11-16T05:42:14.410Z,95512.83
2017-11-16T05:44:42.022Z,95512.83
2017-11-16T05:47:09.333Z,95518.69
2017-11-16T05:49:36.707Z,95513.19
2017-11-16T05:52:04.159Z,95501.47
2017-11-16T05:54:31.979Z,95510.91
2017-11-16T05:59:34.524Z,95514.71
2017-11-16T06:02:01.774Z,95507.72
2017-11-16T06:07:48.875Z,95513.88
2017-11-16T06:15:37.911Z,95522.95
2017-11-16T06:41:52.141Z,95513.55
2017-11-16T06:44:47.040Z,95515.27
2017-11-16T06:50:26.303Z,95521.50
2017-11-16T06:52:53.620Z,95523.59
2017-11-16T06:55:21.807Z,95520.77
2017-11-16T07:03:25.963Z,95506.20
2017-11-16T07:05:53.299Z,95510.57
2017-11-16T07:13:56.011Z,95509.03
2017-11-16T07:22:29.687Z,95508.30
2017-11-16T12:09:40.539Z,95450.33
2017-11-16T12:40:08.990Z,95433.41
2017-11-16T12:50:42.327Z,95433.34
2017-11-16T12:53:12.354Z,95431.86
2017-11-16T12:58:26.451Z,95432.30
2017-11-16T15:48:00.105Z,95435.59
2017-11-16T15:50:27.589Z,95438.99
2017-11-16T16:00:57.573Z,95441.92
2017-11-16T16:03:24.947Z,95442.48
2017-11-16T16:05:52.427Z,95447.80
2017-11-16T16:08:19.763Z,95440.98
2017-11-16T16:13:19.479Z,95436.24
2017-11-16T16:15:46.722Z,95439.66
2017-11-16T16:18:14.014Z,95437.19
2017-11-16T16:20:41.285Z,95437.95
2017-11-16T16:23:08.523Z,95439.29
2017-11-16T16:25:35.752Z,95436.45
2017-11-16T16:28:03.725Z,95437.02
2017-11-16T16:33:03.900Z,95438.58
2017-11-16T16:35:31.271Z,95436.30
2017-11-16T16:40:33.021Z,95444.67
2017-11-16T16:43:00.338Z,95438.42
2017-11-16T16:45:33.679Z,95445.27
2017-11-16T16:48:00.902Z,95441.66
2017-11-16T16:50:28.072Z,95440.52
2017-11-16T16:52:55.355Z,95435.41
2017-11-16T16:55:22.591Z,95433.33
2017-11-16T16:57:49.915Z,95428.63
2017-11-16T17:00:17.168Z,95430.91
2017-11-16T17:07:58.052Z,95432.23
2017-11-16T17:10:25.600Z,95432.62
2017-11-16T17:15:51.222Z,95430.35
2017-11-16T17:42:27.052Z,95427.03
2017-11-16T17:47:25.593Z,95422.67
2017-11-16T17:49:52.924Z,95421.90
2017-11-16T17:52:20.175Z,95420.41
2017-11-16T17:54:47.454Z,95426.31
2017-11-16T17:57:14.713Z,95424.98
2017-11-16T18:07:28.741Z,95422.89
2017-11-16T18:09:59.785Z,95421.38
2017-11-16T18:17:35.129Z,95418.13
2017-11-16T18:20:03.377Z,95424.20
2017-11-16T18:32:43.416Z,95419.80
2017-11-16T18:35:10.702Z,95423.05
2017-11-16T18:37:37.915Z,95418.47
2017-11-16T18:40:05.240Z,95417.52
2017-11-16T18:42:33.131Z,95423.78
2017-11-16T18:45:00.318Z,95424.36
2017-11-16T18:47:27.615Z,95419.05
2017-11-16T18:52:28.404Z,95428.91
2017-11-16T18:54:55.665Z,95427.97
2017-11-16T18:57:23.032Z,95432.72
2017-11-16T18:59:50.238Z,95431.39
2017-11-16T19:05:21.413Z,95424.38
2017-11-16T19:07:48.659Z,95424.75
2017-11-16T19:10:15.978Z,95425.31
2017-11-16T19:12:43.219Z,95424.17
2017-11-16T19:15:10.455Z,95425.70
2017-11-16T19:23:02.383Z,95431.19
2017-11-16T19:25:29.685Z,95432.17
2017-11-16T19:30:28.357Z,95425.15
2017-11-16T19:32:55.963Z,95423.62
2017-11-16T19:35:24.163Z,95422.50
2017-11-16T19:37:52.205Z,95421.17
2017-11-16T19:40:32.436Z,95418.90
2017-11-16T19:43:02.828Z,95424.59
2017-11-16T19:45:33.626Z,95413.41
2017-11-16T19:48:01.057Z,95414.74
2017-11-16T19:53:06.347Z,95409.05
2017-11-16T20:05:44.882Z,95396.00
2017-11-16T20:43:48.711Z,95393.45
2017-11-16T20:59:05.910Z,95405.80
2017-11-16T21:01:45.824Z,95405.06
2017-11-16T21:06:44.483Z,95406.77
2017-11-16T21:24:59.265Z,95398.11
2017-11-16T21:27:27.102Z,95400.38
2017-11-16T21:29:54.295Z,95397.75
2017-11-16T21:34:55.317Z,95393.59
2017-11-16T21:37:22.642Z,95394.92
2017-11-16T21:42:23.306Z,95390.17
2017-11-16T21:44:54.649Z,95387.14
2017-11-16T21:57:34.127Z,95393.23
2017-11-16T22:00:01.367Z,95379.59
2017-11-16T22:02:29.208Z,95374.30
2017-11-16T22:04:56.537Z,95383.77
2017-11-16T22:09:59.096Z,95391.54
2017-11-16T22:15:04.362Z,95391.71
2017-11-16T22:20:06.795Z,95389.65
2017-11-16T22:22:37.010Z,95390.80
2017-11-16T22:27:37.918Z,95390.03
2017-11-16T22:30:05.229Z,95384.93
2017-11-16T22:32:32.748Z,95380.19
2017-11-16T22:35:03.204Z,95375.45
2017-11-16T22:37:30.948Z,95373.19
2017-11-16T22:39:58.276Z,95373.39
2017-11-16T22:42:25.526Z,95377.92
2017-11-16T22:44:53.607Z,95377.53
2017-11-16T22:47:26.004Z,95374.33
2017-11-16T22:50:14.229Z,95372.62
2017-11-16T22:52:41.574Z,95368.84
2017-11-16T22:55:08.852Z,95372.64
2017-11-16T23:00:07.346Z,95366.41
2017-11-16T23:02:34.637Z,95370.16
2017-11-16T23:05:01.906Z,95362.42
2017-11-16T23:07:29.222Z,95356.74
2017-11-16T23:09:56.503Z,95368.30
2017-11-16T23:12:23.726Z,95356.38
2017-11-16T23:14:50.967Z,95356.00
2017-11-16T23:17:18.282Z,95340.84
2017-11-16T23:19:45.578Z,95350.14
2017-11-16T23:22:12.901Z,95354.67
2017-11-16T23:24:40.148Z,95361.12
2017-11-16T23:27:07.397Z,95355.58
2017-11-16T23:29:34.687Z,95360.88
2017-11-16T23:37:23.360Z,95351.63
2017-11-16T23:39:54.001Z,95350.31
2017-11-16T23:42:21.293Z,95349.75
2017-11-16T23:44:48.690Z,95346.13
2017-11-16T23:47:15.974Z,95349.36
2017-11-16T23:49:43.274Z,95345.77
2017-11-16T23:52:10.453Z,95355.42
2017-11-16T23:54:37.706Z,95356.16
